Time;durP1;ratioP1;P1;durP2;ratioP2;P2;SDS_P1;SDS_P2;PMS_P1;PMS_P2;Temp;Humidity;BMP_temperature;BMP_pressure;BME280_temperature;BME280_humidity;BME280_pressure;Samples;Min_cycle;Max_cycle;Signal;HPM_P1;HPM_P2
2021/09/04 00:00:15;;;;;;;4.53;4.20;;;17.80;99.90;;;;;;5014040;28;20192;-76
2021/09/04 00:02:40;;;;;;;2.20;1.83;;;17.80;99.90;;;;;;5015502;28;20184;-76
2021/09/04 00:05:06;;;;;;;1.90;1.70;;;17.80;99.90;;;;;;5014887;28;20191;-76
2021/09/04 00:07:32;;;;;;;2.20;1.37;;;17.80;99.90;;;;;;5013690;28;20173;-77
2021/09/04 00:09:59;;;;;;;4.50;2.33;;;17.80;99.90;;;;;;5015121;28;20419;-77
2021/09/04 00:12:26;;;;;;;2.80;2.47;;;17.70;99.90;;;;;;5015116;28;20204;-76
2021/09/04 00:14:53;;;;;;;1.63;1.37;;;17.70;99.90;;;;;;5014396;28;20804;-76
2021/09/04 00:17:18;;;;;;;1.70;1.57;;;17.70;99.90;;;;;;5014902;28;20498;-77
2021/09/04 00:19:44;;;;;;;1.40;1.30;;;17.70;99.90;;;;;;5013499;28;20979;-76
2021/09/04 00:22:10;;;;;;;1.70;1.60;;;17.70;99.90;;;;;;5015032;28;20164;-77
2021/09/04 00:24:35;;;;;;;1.33;1.23;;;17.60;99.90;;;;;;5013623;28;20266;-77
2021/09/04 00:27:01;;;;;;;4.03;3.23;;;17.60;99.90;;;;;;5013100;28;20200;-76
2021/09/04 00:29:27;;;;;;;1.43;1.33;;;17.60;99.90;;;;;;5013201;28;20628;-77
2021/09/04 00:31:53;;;;;;;2.40;2.30;;;17.60;99.90;;;;;;5013484;28;20168;-77
2021/09/04 00:34:19;;;;;;;1.53;1.43;;;17.60;99.90;;;;;;5014479;28;20403;-77
2021/09/04 00:36:44;;;;;;;1.93;1.73;;;17.50;99.90;;;;;;5014270;28;20430;-77
2021/09/04 00:39:10;;;;;;;2.57;2.40;;;17.50;99.90;;;;;;5014684;28;20324;-77
2021/09/04 00:41:36;;;;;;;7.10;1.87;;;17.50;99.90;;;;;;5013337;28;20898;-77
2021/09/04 00:44:06;;;;;;;5.43;1.23;;;17.50;99.90;;;;;;5014193;28;20172;-77
2021/09/04 00:46:32;;;;;;;1.43;1.33;;;17.50;99.90;;;;;;5013884;28;20203;-77
2021/09/04 00:48:58;;;;;;;4.50;3.07;;;17.40;99.90;;;;;;5014183;28;20427;-77
2021/09/04 00:51:24;;;;;;;1.93;1.37;;;17.40;99.90;;;;;;5013503;28;20779;-77
2021/09/04 00:53:50;;;;;;;3.43;2.83;;;17.40;99.90;;;;;;5012647;28;20403;-77
2021/09/04 00:56:16;;;;;;;2.67;2.47;;;17.30;99.90;;;;;;5012496;28;20600;-77
2021/09/04 00:58:42;;;;;;;2.80;2.60;;;17.30;99.90;;;;;;5014306;28;20419;-76
2021/09/04 01:01:08;;;;;;;1.77;1.67;;;17.30;99.90;;;;;;5014175;28;20176;-77
2021/09/04 01:03:34;;;;;;;2.03;1.93;;;17.20;99.90;;;;;;5013978;28;20183;-77
2021/09/04 01:05:59;;;;;;;3.03;1.73;;;17.20;99.90;;;;;;5013496;28;20194;-77
2021/09/04 01:08:25;;;;;;;2.03;1.83;;;17.20;99.90;;;;;;5013784;28;20415;-77
2021/09/04 01:10:52;;;;;;;5.10;1.70;;;17.20;99.90;;;;;;5012554;28;20168;-76
2021/09/04 01:13:18;;;;;;;2.30;1.17;;;17.20;99.90;;;;;;5013423;28;20164;-77
2021/09/04 01:15:45;;;;;;;3.90;2.03;;;17.20;99.90;;;;;;5013286;28;20407;-77
2021/09/04 01:18:11;;;;;;;2.87;2.67;;;17.10;99.90;;;;;;5014046;28;20445;-77
2021/09/04 01:20:36;;;;;;;1.23;1.13;;;17.10;99.90;;;;;;5013985;28;20411;-76
2021/09/04 01:23:02;;;;;;;1.10;0.80;;;17.10;99.90;;;;;;5013824;28;20259;-76
2021/09/04 01:25:30;;;;;;;2.47;2.17;;;17.10;99.90;;;;;;5013575;28;20568;-76
2021/09/04 01:28:00;;;;;;;1.60;1.50;;;17.10;99.90;;;;;;5013401;28;20568;-77
2021/09/04 01:30:26;;;;;;;2.40;2.20;;;17.00;99.90;;;;;;5013555;28;20458;-76
2021/09/04 01:32:52;;;;;;;3.10;2.90;;;17.00;99.90;;;;;;5014013;28;20410;-76
2021/09/04 01:35:24;;;;;;;1.13;1.03;;;17.00;99.90;;;;;;5012050;28;20502;-76
2021/09/04 01:37:50;;;;;;;2.20;1.33;;;17.00;99.90;;;;;;5012877;28;20177;-77
2021/09/04 01:40:17;;;;;;;1.83;1.73;;;17.00;99.90;;;;;;5013726;28;20466;-77
2021/09/04 01:42:45;;;;;;;2.30;2.07;;;16.90;99.90;;;;;;5012710;28;20765;-76
2021/09/04 01:45:12;;;;;;;2.20;0.93;;;16.90;99.90;;;;;;5013571;28;20809;-76
2021/09/04 01:47:37;;;;;;;2.90;2.70;;;16.90;99.90;;;;;;5012062;28;20407;-76
2021/09/04 01:50:09;;;;;;;1.60;0.90;;;16.90;99.90;;;;;;5013394;28;20438;-77
2021/09/04 01:52:35;;;;;;;1.13;1.03;;;16.80;99.90;;;;;;5013698;28;20168;-76
2021/09/04 01:55:00;;;;;;;8.53;4.40;;;16.80;99.90;;;;;;5011862;28;20427;-76
2021/09/04 01:57:26;;;;;;;2.17;1.73;;;16.80;99.90;;;;;;5013515;28;20414;-76
2021/09/04 01:59:51;;;;;;;1.67;1.57;;;16.80;99.90;;;;;;5012122;28;20196;-76
2021/09/04 02:02:17;;;;;;;1.13;1.03;;;16.80;99.90;;;;;;5011244;28;20176;-77
2021/09/04 02:04:42;;;;;;;2.63;1.27;;;16.70;99.90;;;;;;5012455;28;20531;-76
2021/09/04 02:07:08;;;;;;;1.87;1.77;;;16.70;99.90;;;;;;5016150;28;20210;-76
2021/09/04 02:09:33;;;;;;;1.73;1.53;;;16.70;99.90;;;;;;5015388;28;20283;-77
2021/09/04 02:12:00;;;;;;;1.30;1.20;;;16.70;99.90;;;;;;5016237;28;20187;-76
2021/09/04 02:14:26;;;;;;;3.10;2.70;;;16.60;99.90;;;;;;5016332;28;20165;-76
2021/09/04 02:16:51;;;;;;;5.93;1.83;;;16.60;99.90;;;;;;5015650;28;20416;-77
2021/09/04 02:19:17;;;;;;;1.77;1.67;;;16.60;99.90;;;;;;5015889;28;20828;-76
2021/09/04 02:21:42;;;;;;;0.90;0.70;;;16.50;99.90;;;;;;5016069;28;20675;-76
2021/09/04 02:24:08;;;;;;;1.73;1.63;;;16.50;99.90;;;;;;5016363;28;20251;-76
2021/09/04 02:26:34;;;;;;;1.67;1.57;;;16.50;99.90;;;;;;5014510;28;20196;-76
2021/09/04 02:28:59;;;;;;;5.40;2.67;;;16.50;99.90;;;;;;5016025;28;20222;-76
2021/09/04 02:31:25;;;;;;;1.00;0.80;;;16.40;99.90;;;;;;5014772;28;20164;-76
2021/09/04 02:33:54;;;;;;;4.23;3.10;;;16.40;99.90;;;;;;5015598;28;20633;-76
2021/09/04 02:36:20;;;;;;;2.23;2.03;;;16.30;99.90;;;;;;5015310;28;20164;-76
2021/09/04 02:38:47;;;;;;;2.93;1.53;;;16.30;99.90;;;;;;5015922;28;20435;-76
2021/09/04 02:41:13;;;;;;;1.40;1.30;;;16.30;99.90;;;;;;5016630;28;20422;-76
2021/09/04 02:43:40;;;;;;;4.63;1.77;;;16.30;99.90;;;;;;5016624;28;20449;-76
2021/09/04 02:46:05;;;;;;;2.13;1.00;;;16.30;99.90;;;;;;5016568;28;20652;-76
2021/09/04 02:48:32;;;;;;;2.17;2.00;;;16.20;99.90;;;;;;5016713;28;20527;-76
2021/09/04 02:50:57;;;;;;;3.03;2.20;;;16.20;99.90;;;;;;5016574;28;20169;-76
2021/09/04 02:53:23;;;;;;;1.20;1.03;;;16.20;99.90;;;;;;5016408;28;20474;-76
2021/09/04 02:55:48;;;;;;;4.60;1.80;;;16.10;99.90;;;;;;5016613;28;20199;-76
2021/09/04 02:58:15;;;;;;;1.53;1.20;;;16.10;99.90;;;;;;5016524;28;20721;-76
2021/09/04 03:00:41;;;;;;;2.60;2.40;;;16.10;99.90;;;;;;5015643;28;20423;-76
2021/09/04 03:03:06;;;;;;;1.87;1.77;;;16.00;99.90;;;;;;5016240;28;20231;-76
2021/09/04 03:05:32;;;;;;;1.73;1.63;;;16.00;99.90;;;;;;5014714;28;20719;-76
2021/09/04 03:08:00;;;;;;;1.37;1.27;;;16.00;99.90;;;;;;5015083;28;20516;-76
2021/09/04 03:10:26;;;;;;;1.83;1.70;;;16.00;99.90;;;;;;5016196;28;20243;-76
2021/09/04 03:12:51;;;;;;;2.10;1.60;;;16.00;99.90;;;;;;5016215;28;20411;-76
2021/09/04 03:15:17;;;;;;;4.80;2.53;;;16.00;99.90;;;;;;5014978;28;20203;-76
2021/09/04 03:17:43;;;;;;;1.63;0.70;;;16.00;99.90;;;;;;5016246;28;20630;-76
2021/09/04 03:20:09;;;;;;;2.47;0.90;;;15.90;99.90;;;;;;5015984;28;20196;-76
2021/09/04 03:22:36;;;;;;;1.37;0.80;;;15.90;99.90;;;;;;5014735;28;20234;-76
2021/09/04 03:25:03;;;;;;;1.40;1.30;;;15.90;99.90;;;;;;5015273;28;20407;-76
2021/09/04 03:27:29;;;;;;;3.00;2.30;;;15.90;99.90;;;;;;5015704;28;20797;-76
2021/09/04 03:29:55;;;;;;;2.47;2.27;;;15.80;99.90;;;;;;5015520;28;20481;-77
2021/09/04 03:32:20;;;;;;;2.10;1.00;;;15.70;99.90;;;;;;5014014;28;20438;-76
2021/09/04 03:34:46;;;;;;;1.30;1.03;;;15.70;99.90;;;;;;5015368;28;20183;-76
2021/09/04 03:37:12;;;;;;;1.63;1.33;;;15.70;99.90;;;;;;5015617;28;20203;-76
2021/09/04 03:39:38;;;;;;;2.83;2.67;;;15.70;99.90;;;;;;5015505;28;20275;-76
2021/09/04 03:42:03;;;;;;;3.53;2.40;;;15.70;99.90;;;;;;5015454;28;20169;-76
2021/09/04 03:44:29;;;;;;;2.27;1.33;;;15.70;99.90;;;;;;5015059;28;20168;-76
2021/09/04 03:46:55;;;;;;;2.73;1.83;;;15.60;99.90;;;;;;5015234;28;20212;-76
2021/09/04 03:49:20;;;;;;;1.83;1.63;;;15.60;99.90;;;;;;5014877;28;20435;-76
2021/09/04 03:51:46;;;;;;;5.40;1.47;;;15.60;99.90;;;;;;5014260;28;20245;-76
2021/09/04 03:54:11;;;;;;;2.43;2.23;;;15.60;99.90;;;;;;5015021;28;20190;-77
2021/09/04 03:56:37;;;;;;;2.73;2.53;;;15.50;99.90;;;;;;5014575;28;20259;-76
2021/09/04 03:59:02;;;;;;;1.00;0.87;;;15.50;99.90;;;;;;5015036;28;20232;-76
2021/09/04 04:01:28;;;;;;;1.10;1.00;;;15.40;99.90;;;;;;5014386;28;20199;-76
2021/09/04 04:03:53;;;;;;;1.93;1.83;;;15.50;99.90;;;;;;5013677;28;20179;-76
2021/09/04 04:06:19;;;;;;;1.93;1.30;;;15.50;99.90;;;;;;5015161;28;20203;-76
2021/09/04 04:08:44;;;;;;;1.63;0.80;;;15.40;99.90;;;;;;5015179;28;20262;-76
2021/09/04 04:11:11;;;;;;;2.13;1.20;;;15.40;99.90;;;;;;5013588;28;20183;-76
2021/09/04 04:13:38;;;;;;;0.90;0.90;;;15.40;99.90;;;;;;5013918;28;20169;-76
2021/09/04 04:16:04;;;;;;;6.47;3.23;;;15.40;99.90;;;;;;5013558;28;20816;-76
2021/09/04 04:18:31;;;;;;;1.63;1.03;;;15.40;99.90;;;;;;5014783;28;20434;-76
2021/09/04 04:20:58;;;;;;;5.43;3.23;;;15.40;99.90;;;;;;5014743;28;20438;-76
2021/09/04 04:23:23;;;;;;;2.00;1.57;;;15.40;99.90;;;;;;5014825;28;20407;-76
2021/09/04 04:25:50;;;;;;;1.40;0.93;;;15.40;99.90;;;;;;5014695;28;20461;-76
2021/09/04 04:28:16;;;;;;;2.20;2.07;;;15.30;99.90;;;;;;5014288;28;20848;-76
2021/09/04 04:30:41;;;;;;;2.40;1.20;;;15.30;99.90;;;;;;5014571;28;20446;-76
2021/09/04 04:33:07;;;;;;;3.60;1.40;;;15.30;99.90;;;;;;5014696;28;20399;-76
2021/09/04 04:35:32;;;;;;;1.77;1.67;;;15.20;99.90;;;;;;5012967;28;20172;-76
2021/09/04 04:37:58;;;;;;;2.57;1.83;;;15.20;99.90;;;;;;5015071;28;20180;-76
2021/09/04 04:40:23;;;;;;;3.30;2.67;;;15.20;99.90;;;;;;5014746;28;20295;-76
2021/09/04 04:42:49;;;;;;;1.40;1.10;;;15.20;99.90;;;;;;5014469;28;20630;-76
2021/09/04 04:45:14;;;;;;;1.63;1.53;;;15.20;99.90;;;;;;5013935;28;20176;-76
2021/09/04 04:47:40;;;;;;;4.60;2.57;;;15.20;99.90;;;;;;5014856;28;20169;-76
2021/09/04 04:50:06;;;;;;;1.27;0.97;;;15.20;99.90;;;;;;5014483;28;20195;-76
2021/09/04 04:52:32;;;;;;;1.00;0.90;;;15.20;99.90;;;;;;5013010;28;20238;-76
2021/09/04 04:54:57;;;;;;;1.93;1.50;;;15.20;99.90;;;;;;5013917;28;20427;-76
2021/09/04 04:57:23;;;;;;;1.37;1.27;;;15.20;99.90;;;;;;5013604;28;20176;-76
2021/09/04 04:59:48;;;;;;;1.10;1.00;;;15.20;99.90;;;;;;5014662;28;20215;-76
2021/09/04 05:02:14;;;;;;;1.37;1.27;;;15.20;99.90;;;;;;5014575;28;20639;-76
2021/09/04 05:04:39;;;;;;;2.97;2.10;;;15.20;99.90;;;;;;5014206;28;20254;-76
2021/09/04 05:07:05;;;;;;;4.53;1.20;;;15.10;99.90;;;;;;5014311;28;20258;-76
2021/09/04 05:09:30;;;;;;;4.20;2.60;;;15.10;99.90;;;;;;5014199;28;20279;-76
2021/09/04 05:11:56;;;;;;;0.90;0.80;;;15.10;99.90;;;;;;5014008;28;20176;-76
2021/09/04 05:14:21;;;;;;;1.80;1.70;;;15.10;99.90;;;;;;5014338;28;20178;-76
2021/09/04 05:16:47;;;;;;;1.20;1.10;;;15.10;99.90;;;;;;5014171;28;20172;-76
2021/09/04 05:19:12;;;;;;;1.17;1.00;;;15.00;99.90;;;;;;5012756;28;20288;-76
2021/09/04 05:21:38;;;;;;;1.83;1.53;;;15.10;99.90;;;;;;5014315;28;20172;-76
2021/09/04 05:24:04;;;;;;;2.40;2.10;;;15.10;99.90;;;;;;5013947;28;20207;-76
2021/09/04 05:26:29;;;;;;;4.93;2.17;;;15.10;99.90;;;;;;5012766;28;20200;-76
2021/09/04 05:28:55;;;;;;;1.20;1.07;;;15.10;99.90;;;;;;5013937;28;20468;-76
2021/09/04 05:31:20;;;;;;;1.50;1.40;;;15.20;99.90;;;;;;5014485;28;20175;-76
2021/09/04 05:33:46;;;;;;;1.93;1.23;;;15.20;99.90;;;;;;5013190;28;20254;-76
2021/09/04 05:36:12;;;;;;;1.83;1.73;;;15.20;99.90;;;;;;5013008;28;20216;-76
2021/09/04 05:38:38;;;;;;;2.07;1.47;;;15.20;99.90;;;;;;5012959;28;20219;-76
2021/09/04 05:41:06;;;;;;;0.97;0.90;;;15.20;99.90;;;;;;5015608;28;20172;-76
2021/09/04 05:43:31;;;;;;;2.40;2.30;;;15.20;99.90;;;;;;5017241;28;20423;-76
2021/09/04 05:45:57;;;;;;;3.63;3.43;;;15.30;99.90;;;;;;5017718;28;20451;-76
2021/09/04 05:48:22;;;;;;;2.50;2.30;;;15.30;99.90;;;;;;5017881;28;20173;-76
2021/09/04 05:50:48;;;;;;;1.07;0.80;;;15.40;99.90;;;;;;5017738;28;20165;-76
2021/09/04 05:53:13;;;;;;;4.70;2.83;;;15.50;99.90;;;;;;5016326;28;20172;-76
2021/09/04 05:55:39;;;;;;;2.53;2.33;;;15.50;99.90;;;;;;5017691;28;20192;-76
2021/09/04 05:58:05;;;;;;;1.47;1.37;;;15.60;99.90;;;;;;5017672;28;20290;-76
2021/09/04 06:00:30;;;;;;;1.90;1.80;;;15.70;99.90;;;;;;5017343;28;20192;-77
2021/09/04 06:02:56;;;;;;;1.17;1.07;;;15.90;99.90;;;;;;5017361;28;20195;-77
2021/09/04 06:05:22;;;;;;;3.87;2.73;;;16.10;99.90;;;;;;5014787;28;20618;-75
2021/09/04 06:07:47;;;;;;;3.07;2.87;;;16.40;99.90;;;;;;5015840;28;20572;-79
2021/09/04 06:10:13;;;;;;;2.40;2.20;;;16.60;99.90;;;;;;5016215;28;20233;-76
2021/09/04 06:12:38;;;;;;;1.57;1.43;;;17.00;99.90;;;;;;5015581;28;20168;-76
2021/09/04 06:15:05;;;;;;;2.23;2.10;;;17.30;99.90;;;;;;5016821;28;20184;-77
2021/09/04 06:17:30;;;;;;;2.57;1.87;;;17.70;99.90;;;;;;5015219;28;20179;-76
2021/09/04 06:19:56;;;;;;;2.70;2.50;;;18.00;99.90;;;;;;5014845;28;20419;-76
2021/09/04 06:22:21;;;;;;;3.10;2.57;;;18.30;99.90;;;;;;5015005;28;20251;-76
2021/09/04 06:24:47;;;;;;;12.03;2.03;;;18.60;99.90;;;;;;5013419;28;20172;-76
2021/09/04 06:27:13;;;;;;;4.57;2.40;;;18.90;99.90;;;;;;5014695;28;20653;-75
2021/09/04 06:29:38;;;;;;;3.27;2.73;;;19.20;99.90;;;;;;5014539;28;20188;-76
2021/09/04 06:32:05;;;;;;;3.90;3.07;;;19.50;99.90;;;;;;5014743;28;20494;-76
2021/09/04 06:34:31;;;;;;;3.93;2.47;;;19.70;99.90;;;;;;5018150;28;20164;-79
2021/09/04 06:36:57;;;;;;;4.20;3.60;;;20.00;99.90;;;;;;5018975;28;20423;-78
2021/09/04 06:39:22;;;;;;;2.23;1.20;;;20.20;99.90;;;;;;5018654;28;20473;-79
2021/09/04 06:41:48;;;;;;;4.70;2.43;;;20.40;99.90;;;;;;5019300;28;20646;-78
2021/09/04 06:44:13;;;;;;;4.40;3.03;;;20.60;99.90;;;;;;5017409;28;20195;-77
2021/09/04 06:46:39;;;;;;;3.57;2.70;;;20.90;99.90;;;;;;5014226;28;20270;-76
2021/09/04 06:49:04;;;;;;;10.53;4.40;;;21.10;99.90;;;;;;5016647;28;20192;-79
2021/09/04 06:51:30;;;;;;;1.53;1.43;;;21.30;99.90;;;;;;5018799;28;20630;-78
2021/09/04 06:53:55;;;;;;;2.43;2.10;;;21.40;99.90;;;;;;5019512;28;20267;-79
2021/09/04 06:56:21;;;;;;;6.70;2.23;;;21.30;99.90;;;;;;5018256;28;20191;-79
2021/09/04 06:58:47;;;;;;;3.10;2.17;;;21.10;99.90;;;;;;5016141;28;20199;-76
2021/09/04 07:01:12;;;;;;;6.17;3.00;;;20.90;99.90;;;;;;5014162;28;20588;-76
2021/09/04 07:03:38;;;;;;;2.60;1.60;;;20.70;99.90;;;;;;5014157;28;20532;-76
2021/09/04 07:06:04;;;;;;;2.00;1.90;;;20.50;99.90;;;;;;5013793;28;20691;-76
2021/09/04 07:08:30;;;;;;;3.70;2.33;;;20.40;99.90;;;;;;5013851;28;20181;-79
2021/09/04 07:10:55;;;;;;;3.47;2.60;;;20.30;99.90;;;;;;5019109;28;20803;-79
2021/09/04 07:13:21;;;;;;;5.50;3.17;;;20.20;99.90;;;;;;5014416;28;20415;-76
2021/09/04 07:15:46;;;;;;;1.37;1.27;;;20.20;99.90;;;;;;5012699;28;20208;-77
2021/09/04 07:18:12;;;;;;;6.30;3.53;;;20.30;99.90;;;;;;5016014;28;20204;-77
2021/09/04 07:20:38;;;;;;;4.90;2.93;;;20.40;99.90;;;;;;5014907;28;20179;-76
2021/09/04 07:23:03;;;;;;;2.90;1.90;;;20.50;99.90;;;;;;5014138;28;20187;-77
2021/09/04 07:25:29;;;;;;;2.03;1.63;;;20.70;99.90;;;;;;5019139;28;20196;-79
2021/09/04 07:27:55;;;;;;;4.50;2.03;;;21.10;99.90;;;;;;5019674;28;20196;-79
2021/09/04 07:30:20;;;;;;;1.70;1.60;;;21.60;99.90;;;;;;5019446;28;20211;-79
2021/09/04 07:32:46;;;;;;;4.60;2.37;;;22.00;99.90;;;;;;5016723;28;20191;-79
2021/09/04 07:35:13;;;;;;;1.30;1.10;;;22.30;99.90;;;;;;5017792;28;20633;-79
2021/09/04 07:37:38;;;;;;;7.37;2.27;;;22.60;99.90;;;;;;5013827;28;20645;-77
2021/09/04 07:40:05;;;;;;;5.53;2.50;;;22.80;99.90;;;;;;5016568;28;20431;-79
2021/09/04 07:42:30;;;;;;;9.60;3.63;;;23.10;99.90;;;;;;5017121;28;20179;-77
2021/09/04 07:44:56;;;;;;;4.00;2.40;;;23.10;99.90;;;;;;5014498;28;20403;-79
2021/09/04 07:47:21;;;;;;;2.43;2.23;;;23.00;99.90;;;;;;5018239;28;20204;-79
2021/09/04 07:49:47;;;;;;;2.77;1.70;;;23.00;99.90;;;;;;5013737;28;20673;-76
2021/09/04 07:52:12;;;;;;;3.20;2.43;;;23.00;99.90;;;;;;5012169;28;20702;-76
2021/09/04 07:54:38;;;;;;;2.00;1.80;;;23.00;99.90;;;;;;5013770;28;20183;-77
2021/09/04 07:57:04;;;;;;;3.00;2.73;;;23.00;99.90;;;;;;5013307;28;20175;-76
2021/09/04 07:59:29;;;;;;;2.33;2.23;;;23.00;99.90;;;;;;5015913;28;20550;-78
2021/09/04 08:01:55;;;;;;;2.10;1.90;;;23.00;99.90;;;;;;5011871;28;20176;-76
2021/09/04 08:04:20;;;;;;;3.73;3.43;;;23.00;99.90;;;;;;5012178;28;20242;-77
2021/09/04 08:06:46;;;;;;;3.63;2.47;;;22.80;99.90;;;;;;5014720;28;20204;-77
2021/09/04 08:09:11;;;;;;;3.57;3.27;;;22.80;99.90;;;;;;5014891;28;20262;-77
2021/09/04 08:11:37;;;;;;;4.90;2.63;;;22.80;99.90;;;;;;5013932;28;20164;-79
2021/09/04 08:14:02;;;;;;;5.90;3.47;;;23.00;99.90;;;;;;5016450;28;20169;-77
2021/09/04 08:16:28;;;;;;;6.83;2.47;;;23.30;99.90;;;;;;5012771;28;20233;-77
2021/09/04 08:18:53;;;;;;;3.50;2.87;;;23.70;99.90;;;;;;5012856;28;20258;-76
2021/09/04 08:21:19;;;;;;;2.17;2.07;;;24.00;99.90;;;;;;5012869;28;20168;-76
2021/09/04 08:23:45;;;;;;;8.83;3.10;;;24.40;99.90;;;;;;5012979;28;20587;-77
2021/09/04 08:26:10;;;;;;;2.40;2.20;;;24.80;99.90;;;;;;5012443;28;20202;-76
2021/09/04 08:28:36;;;;;;;3.27;2.70;;;25.20;99.90;;;;;;5012544;28;20180;-76
2021/09/04 08:31:01;;;;;;;5.10;3.40;;;25.60;99.90;;;;;;5014189;28;20179;-78
2021/09/04 08:33:27;;;;;;;3.13;2.80;;;26.00;99.90;;;;;;5011853;28;20642;-77
2021/09/04 08:35:52;;;;;;;3.03;2.67;;;26.40;99.90;;;;;;5012968;28;20195;-75
2021/09/04 08:38:18;;;;;;;3.77;3.37;;;26.70;99.90;;;;;;5013930;28;20172;-75
2021/09/04 08:40:46;;;;;;;4.83;2.90;;;27.10;99.90;;;;;;5012285;28;20169;-75
2021/09/04 08:43:12;;;;;;;3.37;3.10;;;27.60;99.90;;;;;;5012183;28;20172;-76
2021/09/04 08:45:39;;;;;;;3.50;3.30;;;28.00;99.90;;;;;;5012602;28;20458;-77
2021/09/04 08:48:08;;;;;;;3.57;2.90;;;28.40;99.90;;;;;;5013697;28;20410;-74
2021/09/04 08:50:36;;;;;;;3.70;3.40;;;28.70;99.90;;;;;;5013669;28;20940;-76
2021/09/04 08:53:01;;;;;;;4.30;2.77;;;29.10;99.90;;;;;;5015095;28;20444;-76
2021/09/04 08:55:28;;;;;;;6.00;3.20;;;29.40;99.90;;;;;;5012388;28;20903;-75
2021/09/04 08:57:55;;;;;;;3.23;2.57;;;29.60;99.90;;;;;;5012137;28;20179;-75
2021/09/04 09:00:34;;;;;;;3.47;2.87;;;29.80;99.90;;;;;;5012835;28;20529;-77
2021/09/04 09:03:01;;;;;;;3.80;3.47;;;30.10;99.90;;;;;;5014623;28;20419;-77
2021/09/04 09:05:42;;;;;;;2.03;1.70;;;30.40;99.90;;;;;;5013688;28;20762;-76
2021/09/04 09:08:21;;;;;;;2.73;1.93;;;30.80;99.90;;;;;;5013677;28;20470;-76
2021/09/04 09:10:46;;;;;;;4.47;4.10;;;31.00;99.90;;;;;;5012067;28;20407;-74
2021/09/04 09:13:17;;;;;;;5.03;2.33;;;31.20;99.90;;;;;;5014312;28;20402;-76
2021/09/04 09:15:43;;;;;;;3.40;3.10;;;31.20;99.90;;;;;;5017114;28;20198;-76
2021/09/04 09:18:12;;;;;;;4.30;2.97;;;31.40;99.40;;;;;;5019593;28;20406;-76
2021/09/04 09:20:40;;;;;;;3.73;3.50;;;31.40;99.90;;;;;;5018686;28;20164;-75
2021/09/04 09:23:14;;;;;;;2.70;2.50;;;31.70;99.50;;;;;;5017273;28;20465;-76
2021/09/04 09:25:42;;;;;;;2.27;2.07;;;31.80;98.10;;;;;;5016995;28;20446;-74
2021/09/04 09:28:12;;;;;;;4.10;3.17;;;32.00;97.70;;;;;;5015956;28;20844;-74
2021/09/04 09:30:40;;;;;;;6.40;3.43;;;32.20;97.20;;;;;;5016024;28;20400;-77
2021/09/04 09:33:07;;;;;;;3.50;3.20;;;32.30;95.80;;;;;;5018483;28;20407;-78
2021/09/04 09:35:38;;;;;;;4.37;3.87;;;32.50;95.20;;;;;;5016341;28;20407;-77
2021/09/04 09:38:05;;;;;;;4.47;3.07;;;32.50;93.80;;;;;;5017475;28;20410;-76
2021/09/04 09:40:32;;;;;;;3.47;2.67;;;32.80;94.00;;;;;;5015512;28;20434;-75
2021/09/04 09:42:58;;;;;;;6.30;2.83;;;32.80;93.30;;;;;;5014300;28;20415;-74
2021/09/04 09:45:46;;;;;;;2.83;2.60;;;32.80;91.50;;;;;;5015236;28;20416;-74
2021/09/04 09:48:12;;;;;;;2.47;2.27;;;33.00;91.90;;;;;;5015464;28;20438;-75
2021/09/04 09:50:38;;;;;;;3.73;2.90;;;33.10;90.50;;;;;;5014382;28;20810;-75
2021/09/04 09:53:05;;;;;;;6.00;2.13;;;33.10;88.60;;;;;;5015284;28;20160;-75
2021/09/04 09:55:31;;;;;;;5.17;3.30;;;33.10;89.70;;;;;;5015031;28;20551;-77
2021/09/04 09:57:58;;;;;;;4.67;3.40;;;33.20;87.80;;;;;;5017691;28;20822;-77
2021/09/04 10:00:26;;;;;;;3.83;2.60;;;33.30;86.90;;;;;;5016982;28;20422;-76
2021/09/04 10:02:54;;;;;;;3.93;3.57;;;33.40;88.00;;;;;;5015707;28;20403;-75
2021/09/04 10:05:24;;;;;;;5.00;2.80;;;33.30;84.90;;;;;;5014729;28;20791;-74
2021/09/04 10:07:53;;;;;;;3.27;3.00;;;33.40;86.70;;;;;;5016359;28;20473;-75
2021/09/04 10:10:21;;;;;;;5.17;3.03;;;33.50;83.30;;;;;;5016307;28;20521;-77
2021/09/04 10:12:48;;;;;;;6.37;3.50;;;33.60;83.00;;;;;;5016191;28;20411;-74
2021/09/04 10:15:14;;;;;;;2.83;2.37;;;33.60;83.00;;;;;;5014793;28;20817;-75
2021/09/04 10:17:41;;;;;;;4.93;2.60;;;33.90;85.80;;;;;;5015033;28;20439;-74
2021/09/04 10:20:07;;;;;;;2.77;2.27;;;34.10;83.00;;;;;;5014961;28;20838;-74
2021/09/04 10:22:33;;;;;;;3.97;2.13;;;34.30;82.90;;;;;;5013530;28;20951;-74
2021/09/04 10:25:02;;;;;;;4.70;2.90;;;34.40;81.50;;;;;;5014728;28;20418;-78
2021/09/04 10:27:33;;;;;;;4.97;2.30;;;34.30;76.50;;;;;;5016458;28;20592;-77
2021/09/04 10:30:26;;;;;;;3.60;2.33;;;34.20;76.20;;;;;;5015845;28;20443;-75
2021/09/04 10:33:13;;;;;;;2.43;2.20;;;34.20;76.20;;;;;;5016087;28;20438;-77
2021/09/04 10:35:43;;;;;;;3.03;2.67;;;34.40;76.00;;;;;;5014873;28;20411;-74
2021/09/04 10:38:18;;;;;;;3.70;2.00;;;34.40;77.00;;;;;;5014806;28;20411;-74
2021/09/04 10:40:48;;;;;;;1.93;1.80;;;34.50;74.90;;;;;;5015620;28;20838;-77
2021/09/04 10:43:15;;;;;;;5.30;2.63;;;34.50;77.10;;;;;;5016189;28;20419;-75
2021/09/04 10:45:43;;;;;;;8.63;2.97;;;34.70;76.60;;;;;;5015188;28;20455;-75
2021/09/04 10:48:17;;;;;;;2.80;2.60;;;34.80;76.60;;;;;;5014556;28;20991;-74
2021/09/04 10:51:09;;;;;;;2.90;1.97;;;34.40;73.30;;;;;;5014434;28;20402;-74
2021/09/04 10:53:48;;;;;;;3.40;2.53;;;34.70;74.20;;;;;;5014359;28;20499;-75
2021/09/04 10:56:29;;;;;;;4.67;3.83;;;34.70;72.50;;;;;;5012687;28;20430;-74
2021/09/04 10:58:55;;;;;;;8.87;2.77;;;34.80;72.60;;;;;;5014204;28;20431;-75
2021/09/04 11:01:32;;;;;;;6.20;2.57;;;35.00;72.60;;;;;;5014328;28;20494;-75
2021/09/04 11:03:58;;;;;;;9.00;3.23;;;35.10;73.90;;;;;;5014147;28;20168;-75
2021/09/04 11:06:24;;;;;;;5.07;2.87;;;35.20;71.90;;;;;;5014317;28;20470;-76
2021/09/04 11:08:52;;;;;;;7.07;2.70;;;35.30;71.10;;;;;;5014339;28;20200;-77
2021/09/04 11:11:35;;;;;;;4.83;3.27;;;35.20;69.10;;;;;;5014596;28;20440;-75
2021/09/04 11:14:23;;;;;;;3.97;2.27;;;35.30;69.70;;;;;;5015561;28;20845;-76
2021/09/04 11:16:53;;;;;;;4.93;3.03;;;35.50;67.70;;;;;;5015102;28;20812;-75
2021/09/04 11:19:26;;;;;;;5.50;2.17;;;35.50;70.40;;;;;;5014983;28;20423;-76
2021/09/04 11:21:54;;;;;;;3.90;2.80;;;35.60;70.70;;;;;;5014478;28;20407;-76
2021/09/04 11:24:24;;;;;;;3.07;2.77;;;35.60;70.60;;;;;;5014703;28;20403;-75
2021/09/04 11:27:00;;;;;;;3.90;2.77;;;35.50;68.00;;;;;;5012028;28;20455;-75
2021/09/04 11:29:26;;;;;;;2.33;1.90;;;35.70;68.00;;;;;;5013643;28;20966;-74
2021/09/04 11:31:54;;;;;;;2.40;2.13;;;35.70;67.00;;;;;;5013831;28;20436;-75
2021/09/04 11:34:46;;;;;;;3.27;2.50;;;35.70;69.30;;;;;;5015412;28;20550;-76
2021/09/04 11:37:21;;;;;;;3.60;2.53;;;35.60;66.30;;;;;;5014504;28;20896;-75
2021/09/04 11:39:48;;;;;;;7.83;3.27;;;35.80;68.00;;;;;;5012030;28;20434;-76
2021/09/04 11:42:16;;;;;;;3.73;2.40;;;35.80;68.50;;;;;;5014640;28;20414;-77
2021/09/04 11:44:56;;;;;;;2.83;2.60;;;35.80;67.10;;;;;;5013977;28;20502;-75
2021/09/04 11:47:22;;;;;;;2.63;2.43;;;35.70;66.30;;;;;;5012079;28;20465;-75
2021/09/04 11:49:54;;;;;;;2.87;2.60;;;35.80;67.00;;;;;;5013521;28;20944;-75
2021/09/04 11:52:30;;;;;;;2.60;2.40;;;35.90;64.60;;;;;;5013338;28;20845;-74
2021/09/04 11:55:10;;;;;;;2.77;2.40;;;35.90;66.60;;;;;;5014522;28;20844;-77
2021/09/04 11:57:37;;;;;;;3.67;2.10;;;35.90;65.10;;;;;;5015536;28;20403;-77
2021/09/04 12:00:02;;;;;;;2.70;2.20;;;36.10;67.00;;;;;;5012656;28;20446;-75
2021/09/04 12:02:28;;;;;;;2.70;1.83;;;36.30;64.90;;;;;;5013073;28;20762;-74
2021/09/04 12:04:55;;;;;;;3.33;3.03;;;35.90;60.50;;;;;;5013130;28;20168;-76
2021/09/04 12:07:25;;;;;;;4.53;2.40;;;35.80;63.50;;;;;;5012735;28;20681;-78
2021/09/04 12:09:51;;;;;;;1.87;1.43;;;35.90;65.90;;;;;;5012838;28;20438;-77
2021/09/04 12:12:17;;;;;;;3.73;3.43;;;35.90;63.90;;;;;;5012575;28;20955;-76
2021/09/04 12:14:43;;;;;;;2.37;2.17;;;35.90;63.50;;;;;;5012751;28;20407;-76
2021/09/04 12:17:08;;;;;;;1.90;1.80;;;36.00;62.50;;;;;;5013483;28;20164;-76
2021/09/04 12:19:38;;;;;;;2.97;1.63;;;35.90;61.30;;;;;;5013064;28;20532;-76
2021/09/04 12:22:04;;;;;;;3.77;3.47;;;35.90;62.60;;;;;;5014038;28;20214;-75
2021/09/04 12:24:31;;;;;;;2.30;2.10;;;35.90;63.00;;;;;;5012539;28;20583;-76
2021/09/04 12:26:57;;;;;;;2.03;1.80;;;35.90;63.70;;;;;;5013294;28;20573;-76
2021/09/04 12:29:29;;;;;;;4.20;2.57;;;36.00;62.60;;;;;;5013788;28;20451;-75
2021/09/04 12:32:12;;;;;;;3.77;2.83;;;36.10;65.70;;;;;;5013633;28;20168;-75
2021/09/04 12:34:39;;;;;;;2.30;2.10;;;36.00;67.00;;;;;;5013848;28;20396;-75
2021/09/04 12:37:27;;;;;;;2.67;2.47;;;35.80;66.00;;;;;;5012238;28;20514;-76
2021/09/04 12:40:07;;;;;;;2.37;2.17;;;35.80;66.80;;;;;;5013554;28;20442;-76
2021/09/04 12:42:33;;;;;;;3.37;2.97;;;35.90;67.90;;;;;;5013647;28;20391;-75
2021/09/04 12:45:06;;;;;;;3.10;2.00;;;35.70;67.10;;;;;;5012898;28;20439;-75
2021/09/04 12:47:43;;;;;;;2.43;1.93;;;35.80;67.20;;;;;;5013335;28;20235;-75